sensor_id;sensor_type;location;lat;lon;timestamp;P1;durP1;ratioP1;P2;durP2;ratioP2
12842;SDS011;35724;49.324;-123.118;2022-09-09T00:33:10;4.20;;;1.77;;
12842;SDS011;35724;49.324;-123.118;2022-09-09T01:33:00;5.65;;;2.08;;
12842;SDS011;35724;49.324;-123.118;2022-09-09T01:43:11;3.65;;;1.65;;
12842;SDS011;35724;49.324;-123.118;2022-09-09T01:53:23;4.00;;;1.67;;
12842;SDS011;35724;49.324;-123.118;2022-09-09T02:03:31;3.05;;;1.60;;
12842;SDS011;35724;49.324;-123.118;2022-09-09T02:13:51;4.65;;;1.58;;
12842;SDS011;35724;49.324;-123.118;2022-09-09T02:24:03;4.38;;;1.52;;
12842;SDS011;35724;49.324;-123.118;2022-09-09T02:34:22;3.38;;;1.92;;
12842;SDS011;35724;49.324;-123.118;2022-09-09T02:44:33;8.90;;;2.33;;
12842;SDS011;35724;49.324;-123.118;2022-09-09T02:54:45;4.20;;;1.90;;
12842;SDS011;35724;49.324;-123.118;2022-09-09T03:04:54;4.10;;;2.67;;
12842;SDS011;35724;49.324;-123.118;2022-09-09T03:15:03;4.72;;;2.33;;
12842;SDS011;35724;49.324;-123.118;2022-09-09T03:25:13;4.53;;;2.20;;
12842;SDS011;35724;49.324;-123.118;2022-09-09T03:35:23;2.83;;;1.70;;
12842;SDS011;35724;49.324;-123.118;2022-09-09T03:45:30;3.03;;;1.55;;
12842;SDS011;35724;49.324;-123.118;2022-09-09T03:55:39;3.83;;;1.67;;
12842;SDS011;35724;49.324;-123.118;2022-09-09T04:05:53;6.25;;;2.15;;
12842;SDS011;35724;49.324;-123.118;2022-09-09T04:16:08;5.95;;;1.90;;
12842;SDS011;35724;49.324;-123.118;2022-09-09T04:37:12;4.38;;;1.77;;
12842;SDS011;35724;49.324;-123.118;2022-09-09T04:47:56;4.63;;;1.48;;
12842;SDS011;35724;49.324;-123.118;2022-09-09T04:58:07;4.63;;;2.10;;
12842;SDS011;35724;49.324;-123.118;2022-09-09T05:08:14;2.63;;;1.45;;
12842;SDS011;35724;49.324;-123.118;2022-09-09T05:18:24;3.03;;;1.50;;
12842;SDS011;35724;49.324;-123.118;2022-09-09T05:28:33;2.42;;;1.40;;
12842;SDS011;35724;49.324;-123.118;2022-09-09T05:38:42;2.28;;;1.40;;
12842;SDS011;35724;49.324;-123.118;2022-09-09T05:48:51;1.55;;;1.40;;
12842;SDS011;35724;49.324;-123.118;2022-09-09T05:59:07;2.63;;;1.20;;
12842;SDS011;35724;49.324;-123.118;2022-09-09T06:09:15;5.65;;;1.85;;
12842;SDS011;35724;49.324;-123.118;2022-09-09T06:19:24;3.67;;;1.58;;
12842;SDS011;35724;49.324;-123.118;2022-09-09T06:29:33;2.83;;;1.40;;
12842;SDS011;35724;49.324;-123.118;2022-09-09T06:39:42;3.45;;;1.48;;
12842;SDS011;35724;49.324;-123.118;2022-09-09T06:49:49;2.65;;;1.25;;
12842;SDS011;35724;49.324;-123.118;2022-09-09T07:00:11;2.00;;;1.30;;
12842;SDS011;35724;49.324;-123.118;2022-09-09T07:10:27;1.40;;;1.13;;
12842;SDS011;35724;49.324;-123.118;2022-09-09T07:20:39;2.45;;;1.30;;
12842;SDS011;35724;49.324;-123.118;2022-09-09T07:31:23;1.30;;;1.00;;
12842;SDS011;35724;49.324;-123.118;2022-09-09T07:41:48;1.38;;;1.17;;
12842;SDS011;35724;49.324;-123.118;2022-09-09T07:52:05;1.43;;;1.13;;
12842;SDS011;35724;49.324;-123.118;2022-09-09T08:02:32;1.67;;;1.20;;
12842;SDS011;35724;49.324;-123.118;2022-09-09T08:12:43;1.60;;;1.10;;
12842;SDS011;35724;49.324;-123.118;2022-09-09T08:23:12;1.35;;;1.00;;
12842;SDS011;35724;49.324;-123.118;2022-09-09T08:33:23;1.55;;;0.90;;
12842;SDS011;35724;49.324;-123.118;2022-09-09T08:43:32;1.52;;;1.10;;
12842;SDS011;35724;49.324;-123.118;2022-09-09T08:53:41;0.80;;;0.80;;
12842;SDS011;35724;49.324;-123.118;2022-09-09T09:04:02;1.30;;;1.10;;
12842;SDS011;35724;49.324;-123.118;2022-09-09T09:14:40;1.77;;;1.02;;
12842;SDS011;35724;49.324;-123.118;2022-09-09T09:25:02;2.35;;;1.05;;
12842;SDS011;35724;49.324;-123.118;2022-09-09T09:35:21;1.27;;;0.90;;
12842;SDS011;35724;49.324;-123.118;2022-09-09T09:45:34;2.45;;;1.08;;
12842;SDS011;35724;49.324;-123.118;2022-09-09T09:56:13;2.05;;;1.00;;
12842;SDS011;35724;49.324;-123.118;2022-09-09T10:06:42;0.90;;;0.90;;
12842;SDS011;35724;49.324;-123.118;2022-09-09T10:39:49;1.58;;;1.00;;
12842;SDS011;35724;49.324;-123.118;2022-09-09T10:50:13;1.38;;;1.08;;
12842;SDS011;35724;49.324;-123.118;2022-09-09T11:01:06;2.25;;;1.30;;
12842;SDS011;35724;49.324;-123.118;2022-09-09T11:11:22;1.30;;;1.00;;
12842;SDS011;35724;49.324;-123.118;2022-09-09T11:21:39;1.63;;;0.90;;
12842;SDS011;35724;49.324;-123.118;2022-09-09T11:31:54;2.28;;;1.10;;
12842;SDS011;35724;49.324;-123.118;2022-09-09T11:42:17;1.17;;;1.08;;
12842;SDS011;35724;49.324;-123.118;2022-09-09T11:52:35;2.60;;;1.02;;
12842;SDS011;35724;49.324;-123.118;2022-09-09T12:02:49;1.50;;;1.00;;
12842;SDS011;35724;49.324;-123.118;2022-09-09T12:13:07;0.98;;;0.88;;
12842;SDS011;35724;49.324;-123.118;2022-09-09T12:23:29;1.23;;;1.10;;
12842;SDS011;35724;49.324;-123.118;2022-09-09T12:33:44;1.15;;;1.05;;
12842;SDS011;35724;49.324;-123.118;2022-09-09T12:44:05;1.05;;;0.90;;
12842;SDS011;35724;49.324;-123.118;2022-09-09T12:54:15;1.00;;;0.90;;
12842;SDS011;35724;49.324;-123.118;2022-09-09T13:04:32;1.20;;;0.85;;
12842;SDS011;35724;49.324;-123.118;2022-09-09T13:14:43;1.40;;;1.00;;
12842;SDS011;35724;49.324;-123.118;2022-09-09T13:25:01;2.25;;;1.00;;
12842;SDS011;35724;49.324;-123.118;2022-09-09T13:35:27;1.90;;;1.27;;
12842;SDS011;35724;49.324;-123.118;2022-09-09T13:45:51;1.90;;;1.27;;
12842;SDS011;35724;49.324;-123.118;2022-09-09T13:56:07;1.20;;;1.10;;
12842;SDS011;35724;49.324;-123.118;2022-09-09T14:06:17;1.33;;;1.10;;
12842;SDS011;35724;49.324;-123.118;2022-09-09T14:16:39;1.52;;;0.93;;
12842;SDS011;35724;49.324;-123.118;2022-09-09T14:26:48;1.35;;;1.00;;
12842;SDS011;35724;49.324;-123.118;2022-09-09T14:36:55;1.73;;;1.27;;
12842;SDS011;35724;49.324;-123.118;2022-09-09T14:47:04;1.30;;;1.10;;
12842;SDS011;35724;49.324;-123.118;2022-09-09T14:57:12;2.65;;;1.40;;
12842;SDS011;35724;49.324;-123.118;2022-09-09T15:07:29;1.48;;;1.10;;
12842;SDS011;35724;49.324;-123.118;2022-09-09T15:17:52;1.88;;;1.38;;
12842;SDS011;35724;49.324;-123.118;2022-09-09T15:28:01;3.63;;;1.10;;
12842;SDS011;35724;49.324;-123.118;2022-09-09T15:38:19;4.28;;;1.38;;
12842;SDS011;35724;49.324;-123.118;2022-09-09T15:48:33;3.87;;;1.90;;
12842;SDS011;35724;49.324;-123.118;2022-09-09T15:58:45;3.85;;;1.85;;
12842;SDS011;35724;49.324;-123.118;2022-09-09T16:08:54;5.25;;;2.25;;
12842;SDS011;35724;49.324;-123.118;2022-09-09T16:19:12;5.63;;;1.95;;
12842;SDS011;35724;49.324;-123.118;2022-09-09T16:29:24;4.30;;;2.00;;
12842;SDS011;35724;49.324;-123.118;2022-09-09T16:39:33;2.47;;;1.50;;
12842;SDS011;35724;49.324;-123.118;2022-09-09T16:49:43;3.67;;;1.70;;
12842;SDS011;35724;49.324;-123.118;2022-09-09T17:05:48;5.57;;;1.60;;
12842;SDS011;35724;49.324;-123.118;2022-09-09T17:15:56;5.57;;;1.60;;
12842;SDS011;35724;49.324;-123.118;2022-09-09T17:26:06;3.97;;;1.45;;
12842;SDS011;35724;49.324;-123.118;2022-09-09T17:36:16;3.72;;;1.60;;
12842;SDS011;35724;49.324;-123.118;2022-09-09T17:46:27;3.58;;;1.70;;
12842;SDS011;35724;49.324;-123.118;2022-09-09T17:56:37;4.40;;;1.85;;
12842;SDS011;35724;49.324;-123.118;2022-09-09T18:06:48;4.13;;;2.13;;
12842;SDS011;35724;49.324;-123.118;2022-09-09T18:17:00;4.57;;;2.05;;
12842;SDS011;35724;49.324;-123.118;2022-09-09T18:27:10;8.63;;;2.25;;
12842;SDS011;35724;49.324;-123.118;2022-09-09T18:37:17;5.38;;;2.40;;
12842;SDS011;35724;49.324;-123.118;2022-09-09T18:47:25;4.13;;;2.38;;
12842;SDS011;35724;49.324;-123.118;2022-09-09T18:57:33;6.30;;;2.17;;
12842;SDS011;35724;49.324;-123.118;2022-09-09T19:07:42;4.95;;;2.10;;
12842;SDS011;35724;49.324;-123.118;2022-09-09T19:17:49;5.40;;;2.40;;
12842;SDS011;35724;49.324;-123.118;2022-09-09T19:28:00;6.93;;;2.25;;
12842;SDS011;35724;49.324;-123.118;2022-09-09T19:38:09;4.88;;;2.05;;
12842;SDS011;35724;49.324;-123.118;2022-09-09T19:48:17;3.80;;;1.70;;
12842;SDS011;35724;49.324;-123.118;2022-09-09T19:58:26;6.68;;;2.30;;
12842;SDS011;35724;49.324;-123.118;2022-09-09T20:08:37;5.60;;;2.40;;
12842;SDS011;35724;49.324;-123.118;2022-09-09T20:18:50;3.90;;;1.90;;
12842;SDS011;35724;49.324;-123.118;2022-09-09T20:29:01;5.05;;;2.30;;
12842;SDS011;35724;49.324;-123.118;2022-09-09T20:39:13;6.57;;;2.25;;
12842;SDS011;35724;49.324;-123.118;2022-09-09T20:49:24;3.50;;;1.80;;
12842;SDS011;35724;49.324;-123.118;2022-09-09T20:59:33;3.30;;;1.52;;
12842;SDS011;35724;49.324;-123.118;2022-09-09T21:09:43;2.60;;;1.30;;
12842;SDS011;35724;49.324;-123.118;2022-09-09T21:19:51;5.32;;;2.10;;
12842;SDS011;35724;49.324;-123.118;2022-09-09T21:30:00;4.05;;;1.70;;
12842;SDS011;35724;49.324;-123.118;2022-09-09T21:40:08;3.63;;;1.80;;
12842;SDS011;35724;49.324;-123.118;2022-09-09T21:50:17;4.97;;;1.85;;
12842;SDS011;35724;49.324;-123.118;2022-09-09T22:00:30;3.53;;;1.73;;
12842;SDS011;35724;49.324;-123.118;2022-09-09T22:10:40;2.70;;;1.40;;
12842;SDS011;35724;49.324;-123.118;2022-09-09T22:20:49;2.92;;;1.40;;
12842;SDS011;35724;49.324;-123.118;2022-09-09T22:30:58;2.42;;;1.73;;
12842;SDS011;35724;49.324;-123.118;2022-09-09T22:41:05;2.55;;;1.38;;
12842;SDS011;35724;49.324;-123.118;2022-09-09T22:51:14;3.72;;;1.50;;
12842;SDS011;35724;49.324;-123.118;2022-09-09T23:01:23;2.15;;;1.50;;
12842;SDS011;35724;49.324;-123.118;2022-09-09T23:11:35;3.00;;;1.52;;
12842;SDS011;35724;49.324;-123.118;2022-09-09T23:21:43;3.20;;;1.60;;
12842;SDS011;35724;49.324;-123.118;2022-09-09T23:32:02;3.92;;;1.60;;
12842;SDS011;35724;49.324;-123.118;2022-09-09T23:42:16;3.63;;;1.90;;
12842;SDS011;35724;49.324;-123.118;2022-09-09T23:52:25;2.70;;;1.60;;
